createdAt,value
2017-05-27T00:08:20.275Z,69.60
2017-05-27T00:10:48.505Z,69.10
2017-05-27T00:13:16.711Z,69.00
2017-05-27T00:15:44.935Z,69.00
2017-05-27T00:18:13.144Z,68.90
2017-05-27T00:20:41.381Z,68.90
2017-05-27T00:23:09.581Z,69.70
2017-05-27T00:25:37.817Z,70.00
2017-05-27T00:28:06.023Z,70.30
2017-05-27T00:30:34.235Z,70.10
2017-05-27T00:33:02.464Z,69.90
2017-05-27T00:35:30.674Z,70.10
2017-05-27T00:37:58.903Z,69.10
2017-05-27T00:40:27.111Z,68.90
2017-05-27T00:46:08.255Z,69.50
2017-05-27T00:48:36.479Z,69.90
2017-05-27T00:51:04.699Z,70.10
2017-05-27T00:53:32.920Z,69.90
2017-05-27T00:56:01.919Z,69.90
2017-05-27T00:58:30.139Z,69.60
2017-05-27T01:00:58.351Z,69.70
2017-05-27T01:03:26.583Z,70.90
2017-05-27T01:05:54.796Z,70.10
2017-05-27T01:08:23.000Z,70.00
2017-05-27T01:10:51.227Z,69.80
2017-05-27T01:13:19.443Z,69.60
2017-05-27T01:15:47.686Z,70.20
2017-05-27T01:18:15.895Z,70.60
2017-05-27T01:20:44.113Z,71.00
2017-05-27T01:23:12.328Z,71.50
2017-05-27T01:25:40.559Z,72.80
2017-05-27T01:28:08.771Z,72.10
2017-05-27T01:30:37.003Z,72.10
2017-05-27T01:33:05.207Z,71.90
2017-05-27T01:35:33.415Z,71.60
2017-05-27T01:38:02.632Z,71.30
2017-05-27T01:40:30.847Z,71.00
2017-05-27T01:43:02.459Z,71.20
2017-05-27T01:45:30.671Z,71.10
2017-05-27T01:47:58.891Z,71.30
2017-05-27T01:50:27.099Z,71.40
2017-05-27T01:52:55.323Z,71.70
2017-05-27T01:55:23.532Z,72.40
2017-05-27T01:57:52.068Z,72.60
2017-05-27T02:00:20.279Z,72.30
2017-05-27T02:02:48.520Z,72.30
2017-05-27T02:05:16.735Z,72.60
2017-05-27T02:07:44.943Z,72.60
2017-05-27T02:10:13.176Z,73.60
2017-05-27T02:12:41.394Z,74.70
2017-05-27T02:15:09.611Z,75.70
2017-05-27T02:17:37.815Z,76.20
2017-05-27T02:20:06.039Z,76.50
2017-05-27T02:22:34.251Z,76.20
2017-05-27T02:25:02.483Z,75.70
2017-05-27T02:27:30.699Z,75.10
2017-05-27T02:29:58.928Z,75.00
2017-05-27T02:32:27.136Z,74.70
2017-05-27T02:34:57.263Z,74.60
2017-05-27T02:37:25.484Z,74.40
2017-05-27T02:39:53.698Z,74.20
2017-05-27T02:48:19.127Z,75.60
2017-05-27T02:50:48.812Z,76.20
2017-05-27T02:53:17.019Z,76.70
2017-05-27T02:55:45.231Z,77.50
2017-05-27T02:58:13.456Z,77.10
2017-05-27T03:00:41.665Z,76.50
2017-05-27T03:03:09.887Z,77.00
2017-05-27T03:05:38.099Z,77.10
2017-05-27T03:08:06.320Z,77.50
2017-05-27T03:10:34.526Z,77.60
2017-05-27T03:13:02.747Z,78.50
2017-05-27T03:15:30.971Z,79.60
2017-05-27T03:17:59.183Z,79.40
2017-05-27T03:20:27.950Z,79.50
2017-05-27T03:22:56.164Z,80.30
2017-05-27T03:25:24.550Z,80.20
2017-05-27T03:27:52.762Z,80.60
2017-05-27T03:30:20.983Z,80.80
2017-05-27T03:32:49.203Z,80.70
2017-05-27T03:35:17.419Z,80.60
2017-05-27T03:37:45.641Z,80.00
2017-05-27T03:40:13.859Z,81.40
2017-05-27T03:42:42.980Z,81.50
2017-05-27T03:45:11.191Z,81.70
2017-05-27T03:47:39.414Z,81.40
2017-05-27T03:50:07.629Z,81.60
2017-05-27T03:52:35.860Z,81.20
2017-05-27T03:55:04.067Z,81.60
2017-05-27T03:57:32.287Z,81.20
2017-05-27T04:00:00.494Z,81.80
2017-05-27T04:02:28.724Z,82.00
2017-05-27T04:04:56.936Z,81.60
2017-05-27T04:07:25.153Z,81.30
2017-05-27T04:09:53.371Z,80.80
2017-05-27T04:12:21.579Z,80.10
2017-05-27T04:14:49.810Z,79.50
2017-05-27T04:17:18.015Z,79.50
2017-05-27T04:19:46.243Z,78.90
2017-05-27T04:22:14.455Z,78.20
2017-05-27T04:24:42.684Z,77.60
2017-05-27T04:27:10.899Z,77.30
2017-05-27T04:29:39.130Z,76.80
2017-05-27T04:32:07.331Z,76.80
2017-05-27T04:34:35.576Z,77.00
2017-05-27T04:37:03.794Z,76.60
2017-05-27T04:39:32.007Z,77.10
2017-05-27T04:42:00.231Z,75.60
2017-05-27T04:44:28.439Z,75.80
2017-05-27T04:46:56.668Z,75.60
2017-05-27T04:49:24.885Z,74.40
2017-05-27T04:51:53.836Z,74.00
2017-05-27T04:54:22.048Z,73.50
2017-05-27T04:56:50.275Z,73.30
2017-05-27T04:59:18.483Z,72.30
2017-05-27T05:01:46.702Z,70.10
2017-05-27T05:04:14.922Z,68.90
2017-05-27T05:06:43.144Z,67.30
2017-05-27T05:09:11.359Z,66.10
2017-05-27T05:11:39.575Z,63.60
2017-05-27T05:14:07.794Z,62.30
2017-05-27T05:16:36.015Z,61.30
2017-05-27T05:19:04.247Z,60.30
2017-05-27T05:21:32.463Z,59.30
2017-05-27T05:24:00.688Z,58.50
2017-05-27T05:26:28.895Z,58.40
2017-05-27T05:28:57.105Z,58.40
2017-05-27T05:31:25.327Z,57.80
2017-05-27T05:33:53.539Z,57.90
2017-05-27T05:36:21.771Z,58.60
2017-05-27T05:38:49.981Z,60.90
2017-05-27T05:41:22.297Z,60.40
2017-05-27T05:43:50.504Z,59.60
2017-05-27T05:46:18.735Z,60.30
2017-05-27T05:48:46.940Z,58.70
2017-05-27T05:51:15.155Z,58.70
2017-05-27T05:53:43.368Z,58.70
2017-05-27T05:56:11.576Z,59.50
2017-05-27T05:58:39.796Z,58.70
2017-05-27T06:01:08.012Z,57.00
2017-05-27T06:03:36.244Z,56.90
2017-05-27T06:06:04.451Z,56.40
2017-05-27T06:08:33.076Z,54.60
2017-05-27T06:11:01.283Z,54.00
2017-05-27T06:13:29.524Z,53.40
2017-05-27T06:15:57.739Z,53.60
2017-05-27T06:18:25.960Z,53.30
2017-05-27T06:20:54.179Z,53.00
2017-05-27T06:23:22.393Z,52.90
2017-05-27T06:25:50.608Z,52.80
2017-05-27T06:28:18.816Z,51.40
2017-05-27T06:30:47.035Z,49.90
2017-05-27T06:33:15.251Z,50.10
2017-05-27T06:35:43.471Z,49.50
2017-05-27T06:38:11.683Z,50.00
2017-05-27T06:40:39.903Z,49.90
2017-05-27T06:43:11.748Z,48.00
2017-05-27T06:45:39.984Z,47.10
2017-05-27T06:48:08.197Z,45.10
2017-05-27T06:50:36.419Z,45.80
2017-05-27T06:53:04.645Z,43.30
2017-05-27T06:55:32.859Z,45.40
2017-05-27T06:58:01.071Z,42.40
2017-05-27T07:00:29.300Z,44.20
2017-05-27T07:02:57.523Z,46.60
2017-05-27T07:05:25.735Z,45.50
2017-05-27T07:07:53.963Z,47.80
2017-05-27T07:10:22.177Z,47.10
2017-05-27T07:12:50.399Z,47.30
2017-05-27T07:15:18.614Z,48.00
2017-05-27T07:17:46.847Z,47.90
2017-05-27T07:20:15.068Z,46.10
2017-05-27T07:22:43.283Z,46.40
2017-05-27T07:25:11.494Z,45.20
2017-05-27T07:27:39.728Z,45.40
2017-05-27T07:30:07.943Z,46.30
2017-05-27T07:32:36.176Z,46.60
2017-05-27T07:35:04.388Z,45.00
2017-05-27T07:37:32.611Z,45.10
2017-05-27T07:40:00.831Z,44.80
2017-05-27T07:42:29.056Z,46.40
2017-05-27T07:44:57.272Z,45.70
2017-05-27T07:47:25.484Z,45.60
2017-05-27T07:49:53.699Z,44.30
2017-05-27T07:52:21.907Z,43.90
2017-05-27T07:54:50.125Z,45.10
2017-05-27T07:57:18.342Z,44.10
2017-05-27T07:59:46.576Z,43.50
2017-05-27T08:02:14.791Z,42.40
2017-05-27T08:04:43.033Z,41.60
2017-05-27T08:07:11.250Z,42.70
2017-05-27T08:09:39.461Z,43.40
2017-05-27T08:12:08.873Z,41.80
2017-05-27T08:14:37.095Z,42.20
2017-05-27T08:17:05.319Z,42.00
2017-05-27T08:19:33.531Z,41.80
2017-05-27T08:22:01.751Z,42.40
2017-05-27T08:24:29.958Z,40.60
2017-05-27T08:26:58.187Z,42.40
2017-05-27T08:29:26.405Z,42.20
2017-05-27T08:31:54.619Z,43.40
2017-05-27T08:34:28.603Z,42.00
2017-05-27T08:36:56.823Z,42.90
2017-05-27T08:39:25.038Z,41.90
2017-05-27T08:41:53.260Z,43.70
2017-05-27T08:44:21.475Z,42.50
2017-05-27T08:46:49.692Z,41.60
2017-05-27T08:49:17.909Z,42.40
2017-05-27T08:51:47.059Z,43.20
2017-05-27T08:54:15.285Z,41.50
2017-05-27T08:56:43.516Z,42.30
2017-05-27T08:59:11.734Z,43.20
2017-05-27T09:01:39.935Z,42.40
2017-05-27T09:04:08.156Z,42.10
2017-05-27T09:06:36.611Z,39.10
2017-05-27T09:09:04.832Z,40.70
2017-05-27T09:11:33.054Z,39.60
2017-05-27T09:14:01.255Z,40.80
2017-05-27T09:16:29.470Z,40.20
2017-05-27T09:18:57.687Z,42.50
2017-05-27T09:21:25.910Z,40.30
2017-05-27T09:23:54.128Z,40.70
2017-05-27T09:26:22.347Z,40.50
2017-05-27T09:28:50.555Z,40.30
2017-05-27T09:31:18.772Z,41.40
2017-05-27T09:33:46.979Z,41.20
2017-05-27T09:36:15.195Z,40.80
2017-05-27T09:38:43.422Z,40.10
2017-05-27T09:41:11.640Z,40.50
2017-05-27T09:43:39.858Z,39.60
2017-05-27T09:46:08.071Z,41.90
2017-05-27T09:48:36.291Z,39.20
2017-05-27T09:51:04.503Z,40.00
2017-05-27T09:53:32.729Z,38.50
2017-05-27T09:56:00.946Z,39.40
2017-05-27T09:58:29.160Z,38.50
2017-05-27T10:00:57.383Z,37.30
2017-05-27T10:03:25.586Z,36.90
2017-05-27T10:05:53.821Z,36.80
2017-05-27T10:08:22.038Z,35.90
2017-05-27T10:10:51.139Z,36.30
2017-05-27T10:13:19.351Z,36.70
2017-05-27T10:15:47.575Z,35.60
2017-05-27T10:18:16.671Z,36.50
2017-05-27T10:20:44.895Z,36.40
2017-05-27T10:23:14.085Z,35.60
2017-05-27T10:25:42.303Z,37.50
2017-05-27T10:28:10.515Z,37.30
2017-05-27T10:30:38.731Z,39.70
2017-05-27T10:33:06.956Z,38.30
2017-05-27T10:35:35.175Z,37.90
2017-05-27T10:38:03.407Z,38.10
2017-05-27T10:40:31.608Z,39.70
2017-05-27T10:42:59.845Z,37.80
2017-05-27T10:45:28.064Z,37.10
2017-05-27T10:47:56.302Z,35.60
2017-05-27T10:50:25.419Z,36.10
2017-05-27T10:52:53.635Z,37.20
2017-05-27T10:55:21.860Z,36.00
2017-05-27T10:57:50.979Z,35.10
2017-05-27T11:00:19.198Z,36.00
2017-05-27T11:02:47.412Z,35.90
2017-05-27T11:05:15.632Z,36.80
2017-05-27T11:07:43.855Z,34.10
2017-05-27T11:10:12.075Z,37.80
2017-05-27T11:12:40.288Z,37.40
2017-05-27T11:15:08.507Z,38.50
2017-05-27T11:17:36.714Z,36.00
2017-05-27T11:20:04.955Z,37.70
2017-05-27T11:22:33.163Z,36.20
2017-05-27T11:25:01.376Z,38.20
2017-05-27T11:27:29.600Z,36.50
2017-05-27T11:29:57.807Z,37.50
2017-05-27T11:32:26.027Z,37.10
2017-05-27T11:34:54.240Z,37.60
2017-05-27T11:37:22.476Z,37.30
2017-05-27T11:39:50.683Z,37.90
2017-05-27T11:42:18.918Z,40.00
2017-05-27T11:44:47.119Z,41.00
2017-05-27T11:47:15.348Z,37.40
2017-05-27T11:49:43.555Z,37.30
2017-05-27T11:52:11.771Z,36.90
2017-05-27T11:54:39.996Z,35.80
2017-05-27T11:57:08.206Z,33.60
2017-05-27T11:59:36.428Z,35.90
2017-05-27T12:02:04.632Z,36.00
2017-05-27T12:04:32.859Z,33.80
2017-05-27T12:07:01.079Z,37.10
2017-05-27T12:09:29.297Z,34.80
2017-05-27T12:11:57.546Z,36.90
2017-05-27T12:14:25.799Z,33.20
2017-05-27T12:16:54.004Z,33.60
2017-05-27T12:19:22.219Z,33.40
2017-05-27T12:21:50.439Z,33.90
2017-05-27T12:24:18.643Z,36.40
2017-05-27T12:26:47.675Z,35.90
2017-05-27T12:29:15.883Z,36.40
2017-05-27T12:31:44.122Z,34.40
2017-05-27T12:34:12.327Z,34.40
2017-05-27T12:36:40.547Z,32.60
2017-05-27T12:39:08.762Z,32.60
2017-05-27T12:41:36.983Z,34.40
2017-05-27T12:44:05.195Z,34.40
2017-05-27T12:46:33.415Z,34.10
2017-05-27T12:49:02.267Z,34.50
2017-05-27T12:51:30.491Z,36.10
2017-05-27T12:53:59.675Z,32.70
2017-05-27T12:56:27.903Z,33.60
2017-05-27T12:58:56.118Z,34.10
2017-05-27T13:01:24.347Z,35.10
2017-05-27T13:03:52.559Z,34.10
2017-05-27T13:06:20.767Z,33.10
2017-05-27T13:08:48.994Z,33.30
2017-05-27T13:11:17.212Z,33.40
2017-05-27T13:13:45.446Z,34.10
2017-05-27T13:16:13.667Z,33.80
2017-05-27T13:18:41.879Z,32.60
2017-05-27T13:21:10.096Z,34.60
2017-05-27T13:23:38.319Z,36.40
2017-05-27T13:26:06.534Z,33.10
2017-05-27T13:28:34.744Z,34.60
2017-05-27T13:31:02.972Z,36.70
2017-05-27T13:33:31.183Z,34.80
2017-05-27T13:35:59.407Z,33.70
2017-05-27T13:38:27.629Z,34.50
2017-05-27T13:40:56.151Z,35.70
2017-05-27T13:43:24.364Z,36.40
2017-05-27T13:45:52.583Z,37.70
2017-05-27T13:48:20.797Z,34.90
2017-05-27T13:50:49.011Z,35.60
2017-05-27T13:53:17.227Z,38.00
2017-05-27T13:55:45.435Z,34.90
2017-05-27T13:58:13.659Z,35.20
2017-05-27T14:00:41.874Z,37.60
2017-05-27T14:03:10.095Z,36.10
2017-05-27T14:05:38.302Z,34.80
2017-05-27T14:08:06.524Z,36.00
2017-05-27T14:10:35.627Z,37.50
2017-05-27T14:13:03.851Z,36.10
2017-05-27T14:15:32.055Z,35.20
2017-05-27T14:18:00.278Z,35.00
2017-05-27T14:20:28.501Z,35.10
2017-05-27T14:22:56.791Z,34.60
2017-05-27T14:25:25.006Z,34.50
2017-05-27T14:27:53.228Z,35.90
2017-05-27T14:30:21.831Z,32.70
2017-05-27T14:32:50.103Z,33.90
2017-05-27T14:35:18.383Z,32.10
2017-05-27T14:37:46.603Z,34.50
2017-05-27T14:40:15.135Z,34.60
2017-05-27T14:42:43.368Z,34.40
2017-05-27T14:45:11.588Z,34.60
2017-05-27T14:47:39.792Z,32.50
2017-05-27T14:50:08.033Z,33.90
2017-05-27T14:52:36.243Z,35.40
2017-05-27T14:55:04.467Z,35.30
2017-05-27T14:57:32.680Z,34.10
2017-05-27T15:00:00.912Z,35.20
2017-05-27T15:02:29.110Z,34.80
2017-05-27T15:04:57.335Z,35.70
2017-05-27T15:07:25.551Z,32.40
2017-05-27T15:09:53.775Z,35.40
2017-05-27T15:12:21.992Z,35.30
2017-05-27T15:14:50.203Z,33.30
2017-05-27T15:17:18.427Z,34.30
2017-05-27T15:19:46.635Z,33.80
2017-05-27T15:22:14.859Z,32.10
2017-05-27T15:24:43.078Z,35.90
2017-05-27T15:27:11.299Z,35.00
2017-05-27T15:29:39.511Z,35.10
2017-05-27T15:32:07.731Z,34.10
2017-05-27T15:34:35.943Z,33.80
2017-05-27T15:37:04.168Z,32.70
2017-05-27T15:39:32.388Z,33.40
2017-05-27T15:42:00.608Z,32.30
2017-05-27T15:44:28.827Z,34.50
2017-05-27T15:46:57.039Z,36.20
2017-05-27T15:49:25.262Z,36.70
2017-05-27T15:51:53.495Z,35.00
2017-05-27T15:54:21.707Z,37.30
2017-05-27T15:56:49.918Z,36.40
2017-05-27T15:59:18.149Z,34.90
2017-05-27T16:01:46.351Z,36.60
2017-05-27T16:04:14.967Z,38.30
2017-05-27T16:06:43.519Z,35.40
2017-05-27T16:09:11.743Z,35.80
2017-05-27T16:11:39.973Z,36.00
2017-05-27T16:14:08.191Z,36.40
2017-05-27T16:16:36.819Z,38.10
2017-05-27T16:19:05.954Z,39.30
2017-05-27T16:21:34.179Z,39.30
2017-05-27T16:24:02.407Z,38.60
2017-05-27T16:26:30.627Z,37.90
2017-05-27T16:28:58.843Z,36.40
2017-05-27T16:31:27.082Z,34.60
2017-05-27T16:33:55.303Z,37.20
2017-05-27T16:36:23.519Z,36.20
2017-05-27T16:38:51.740Z,37.40
2017-05-27T16:41:19.953Z,36.50
2017-05-27T16:43:48.168Z,38.50
2017-05-27T16:46:16.379Z,39.10
2017-05-27T16:48:44.610Z,39.60
2017-05-27T16:51:12.831Z,40.00
2017-05-27T16:53:41.058Z,41.70
2017-05-27T16:56:09.263Z,39.90
2017-05-27T16:58:37.479Z,42.40
2017-05-27T17:01:05.695Z,42.30
2017-05-27T17:03:33.909Z,40.00
2017-05-27T17:06:02.935Z,44.00
2017-05-27T17:08:31.153Z,42.40
2017-05-27T17:10:59.372Z,42.70
2017-05-27T17:13:27.588Z,43.80
2017-05-27T17:15:55.807Z,43.40
2017-05-27T17:18:24.015Z,45.40
2017-05-27T17:20:52.244Z,46.20
2017-05-27T17:23:20.462Z,45.40
2017-05-27T17:25:48.684Z,46.10
2017-05-27T17:28:17.084Z,45.80
2017-05-27T17:30:45.304Z,46.50
2017-05-27T17:33:13.516Z,47.40
2017-05-27T17:35:41.736Z,47.60
2017-05-27T17:38:09.960Z,47.80
2017-05-27T17:40:38.175Z,46.50
2017-05-27T17:43:06.399Z,45.40
2017-05-27T17:45:34.611Z,47.20
2017-05-27T17:48:02.840Z,45.30
2017-05-27T17:50:31.051Z,46.00
2017-05-27T17:52:59.270Z,46.30
2017-05-27T17:55:27.500Z,47.40
2017-05-27T17:57:55.723Z,48.40
2017-05-27T18:00:23.939Z,48.90
2017-05-27T18:02:52.144Z,48.90
2017-05-27T18:05:20.367Z,50.10
2017-05-27T18:07:49.227Z,48.90
2017-05-27T18:10:17.459Z,49.40
2017-05-27T18:12:45.664Z,50.00
2017-05-27T18:15:13.883Z,49.70
2017-05-27T18:17:42.463Z,50.90
2017-05-27T18:20:10.680Z,52.00
2017-05-27T18:22:38.891Z,51.50
2017-05-27T18:25:07.090Z,52.30
2017-05-27T18:27:35.315Z,51.60
2017-05-27T18:30:03.527Z,51.90
2017-05-27T18:32:32.567Z,51.80
2017-05-27T18:35:00.784Z,51.80
2017-05-27T18:37:29.000Z,51.70
2017-05-27T18:39:57.219Z,50.70
2017-05-27T18:42:25.443Z,51.40
2017-05-27T18:44:53.647Z,52.10
2017-05-27T18:47:21.875Z,51.50
2017-05-27T18:49:50.091Z,51.80
2017-05-27T18:52:18.300Z,52.40
2017-05-27T18:54:46.527Z,52.90
2017-05-27T18:57:14.735Z,52.90
2017-05-27T18:59:42.964Z,54.40
2017-05-27T19:02:11.170Z,54.40
2017-05-27T19:04:39.397Z,53.90
2017-05-27T19:07:07.604Z,52.80
2017-05-27T19:09:35.824Z,51.90
2017-05-27T19:12:04.035Z,51.40
2017-05-27T19:14:32.267Z,52.50
2017-05-27T19:17:00.479Z,50.70
2017-05-27T19:19:28.695Z,49.80
2017-05-27T19:21:56.924Z,49.80
2017-05-27T19:24:25.136Z,50.60
2017-05-27T19:26:53.352Z,49.90
2017-05-27T19:29:21.564Z,50.00
2017-05-27T19:31:49.780Z,50.20
2017-05-27T19:34:17.988Z,50.60
2017-05-27T19:36:46.219Z,50.50
2017-05-27T19:39:14.440Z,51.90
2017-05-27T19:41:42.658Z,50.30
2017-05-27T19:44:10.871Z,50.40
2017-05-27T19:46:39.079Z,52.80
2017-05-27T19:49:07.299Z,55.60
2017-05-27T19:51:35.511Z,56.90
2017-05-27T19:54:03.735Z,57.40
2017-05-27T19:56:31.947Z,55.90
2017-05-27T19:59:00.179Z,56.70
2017-05-27T20:01:28.387Z,56.60
2017-05-27T20:03:56.615Z,55.90
2017-05-27T20:06:24.823Z,56.80
2017-05-27T20:08:53.069Z,58.00
2017-05-27T20:11:21.275Z,56.10
2017-05-27T20:13:49.478Z,56.00
2017-05-27T20:16:17.698Z,55.40
2017-05-27T20:18:45.908Z,55.30
2017-05-27T20:21:14.131Z,56.10
2017-05-27T20:23:42.349Z,57.70
2017-05-27T20:26:10.579Z,56.90
2017-05-27T20:28:38.787Z,54.30
2017-05-27T20:31:07.011Z,56.50
2017-05-27T20:33:35.222Z,54.90
2017-05-27T20:36:03.440Z,55.20
2017-05-27T20:38:31.657Z,56.90
2017-05-27T20:40:59.888Z,57.10
2017-05-27T20:43:28.101Z,57.90
2017-05-27T20:45:56.308Z,57.80
2017-05-27T20:48:24.532Z,58.10
2017-05-27T20:50:52.747Z,58.80
2017-05-27T20:53:20.976Z,59.30
2017-05-27T20:55:49.189Z,57.60
2017-05-27T20:58:17.420Z,56.90
2017-05-27T21:00:45.619Z,55.60
2017-05-27T21:03:13.845Z,57.10
2017-05-27T21:05:42.055Z,57.40
2017-05-27T21:08:10.294Z,54.20
2017-05-27T21:10:38.507Z,55.00
2017-05-27T21:13:06.717Z,54.70
2017-05-27T21:15:34.927Z,56.00
2017-05-27T21:18:03.139Z,54.00
2017-05-27T21:20:31.359Z,53.40
2017-05-27T21:22:59.564Z,57.60
2017-05-27T21:25:27.795Z,54.90
2017-05-27T21:27:56.004Z,55.60
2017-05-27T21:30:24.223Z,53.50
2017-05-27T21:32:52.436Z,51.90
2017-05-27T21:35:20.655Z,53.00
2017-05-27T21:37:48.865Z,52.70
2017-05-27T21:40:17.095Z,54.40
2017-05-27T21:42:45.314Z,56.00
2017-05-27T21:45:14.479Z,58.00
2017-05-27T21:47:42.701Z,57.50
2017-05-27T21:50:10.915Z,57.10
2017-05-27T21:52:39.139Z,56.60
2017-05-27T21:55:07.359Z,57.90
2017-05-27T21:57:35.585Z,59.60
2017-05-27T22:00:03.791Z,60.50
2017-05-27T22:02:33.119Z,63.20
2017-05-27T22:05:01.335Z,65.10
2017-05-27T22:07:29.571Z,62.90
2017-05-27T22:09:57.793Z,64.80
2017-05-27T22:12:25.999Z,65.30
2017-05-27T22:14:54.232Z,62.10
2017-05-27T22:17:22.447Z,64.60
2017-05-27T22:19:50.663Z,67.00
2017-05-27T22:22:18.875Z,67.50
2017-05-27T22:24:47.101Z,68.60
2017-05-27T22:27:15.319Z,66.80
2017-05-27T22:29:43.540Z,68.00
2017-05-27T22:32:11.759Z,69.50
2017-05-27T22:34:39.975Z,70.10
2017-05-27T22:37:08.191Z,70.00
2017-05-27T22:39:36.491Z,70.70
2017-05-27T22:42:04.694Z,71.90
2017-05-27T22:44:32.916Z,69.90
2017-05-27T22:47:01.134Z,70.10
2017-05-27T22:49:29.339Z,69.40
2017-05-27T22:51:57.573Z,67.80
2017-05-27T22:54:25.779Z,66.20
2017-05-27T22:56:54.112Z,65.80
2017-05-27T22:59:22.312Z,66.80
2017-05-27T23:01:50.535Z,63.90
2017-05-27T23:04:18.747Z,67.10
2017-05-27T23:06:46.987Z,68.00
2017-05-27T23:09:15.197Z,68.70
2017-05-27T23:11:43.399Z,70.40
2017-05-27T23:14:11.623Z,71.60
2017-05-27T23:16:39.841Z,71.80
2017-05-27T23:19:08.072Z,71.80
2017-05-27T23:21:36.291Z,73.00
2017-05-27T23:24:05.200Z,72.90
2017-05-27T23:26:33.411Z,73.70
2017-05-27T23:29:01.626Z,72.80
2017-05-27T23:31:29.839Z,73.00
2017-05-27T23:33:58.056Z,72.60
2017-05-27T23:36:26.259Z,72.50
2017-05-27T23:38:54.483Z,72.60
2017-05-27T23:41:22.694Z,72.70
2017-05-27T23:43:50.911Z,72.20
2017-05-27T23:46:19.121Z,72.20
2017-05-27T23:48:47.335Z,72.00
2017-05-27T23:51:15.547Z,71.30
2017-05-27T23:53:43.766Z,72.10
2017-05-27T23:56:11.971Z,68.80
2017-05-27T23:58:40.191Z,69.10
